Time;durP1;ratioP1;P1;durP2;ratioP2;P2;SDS_P1;SDS_P2;PMS_P1;PMS_P2;Temp;Humidity;BMP_temperature;BMP_pressure;BME280_temperature;BME280_humidity;BME280_pressure;Samples;Min_cycle;Max_cycle;Signal;HPM_P1;HPM_P2
2022/02/07 00:01:59;;;;;;;2.10;2.00;;;7.50;99.90;;;;;;5051731;28;20402;-74
2022/02/07 00:04:30;;;;;;;2.10;1.60;;;7.30;99.90;;;;;;5052529;28;20418;-70
2022/02/07 00:06:56;;;;;;;3.03;2.07;;;7.20;99.90;;;;;;5051017;28;20813;-70
2022/02/07 00:09:22;;;;;;;2.37;2.17;;;7.10;99.90;;;;;;5051845;28;20427;-70
2022/02/07 00:11:47;;;;;;;2.57;2.37;;;7.10;99.90;;;;;;5051568;28;20637;-75
2022/02/07 00:14:13;;;;;;;2.80;2.60;;;7.20;99.90;;;;;;5051671;28;20269;-70
2022/02/07 00:16:40;;;;;;;2.60;2.20;;;7.10;99.90;;;;;;5051969;28;20176;-70
2022/02/07 00:19:10;;;;;;;2.20;2.00;;;7.10;99.90;;;;;;5055295;28;20305;-70
2022/02/07 00:21:36;;;;;;;3.97;2.10;;;7.20;99.90;;;;;;5054583;28;20469;-70
2022/02/07 00:24:02;;;;;;;2.30;2.20;;;7.00;99.90;;;;;;5055425;28;20442;-70
2022/02/07 00:26:27;;;;;;;4.60;2.30;;;7.10;99.90;;;;;;5038049;28;20188;-69
2022/02/07 00:28:54;;;;;;;2.60;2.40;;;7.10;99.90;;;;;;5055057;28;20199;-70
2022/02/07 00:31:19;;;;;;;5.17;3.10;;;7.20;99.90;;;;;;5064531;28;20183;-70
2022/02/07 00:33:45;;;;;;;2.60;2.40;;;7.00;99.90;;;;;;5075603;28;20795;-70
2022/02/07 00:36:17;;;;;;;3.23;2.93;;;7.00;99.90;;;;;;5075097;28;20230;-70
2022/02/07 00:38:46;;;;;;;2.50;2.40;;;6.90;99.90;;;;;;5075436;28;20546;-70
2022/02/07 00:41:24;;;;;;;2.77;2.50;;;6.80;99.90;;;;;;5073580;28;20393;-70
2022/02/07 00:43:57;;;;;;;3.40;2.50;;;6.80;99.90;;;;;;5074966;28;20405;-74
2022/02/07 00:46:32;;;;;;;2.97;2.77;;;6.70;99.90;;;;;;5075395;28;20409;-69
2022/02/07 00:48:57;;;;;;;2.90;2.70;;;6.80;99.90;;;;;;5074650;28;20507;-70
2022/02/07 00:51:24;;;;;;;2.80;2.60;;;6.80;99.90;;;;;;5064048;28;20434;-70
2022/02/07 00:53:50;;;;;;;2.53;2.40;;;6.80;99.90;;;;;;5054947;28;20179;-75
2022/02/07 00:56:16;;;;;;;3.43;3.23;;;6.80;99.90;;;;;;5054903;28;20450;-70
2022/02/07 00:58:42;;;;;;;5.07;2.83;;;6.80;99.90;;;;;;5055207;28;20992;-70
2022/02/07 01:01:08;;;;;;;2.80;2.60;;;6.90;99.90;;;;;;5054151;28;20173;-70
2022/02/07 01:03:34;;;;;;;3.57;2.70;;;6.80;99.90;;;;;;5055180;28;20496;-70
2022/02/07 01:06:00;;;;;;;2.33;2.20;;;6.80;99.90;;;;;;5054346;28;20175;-70
2022/02/07 01:08:39;;;;;;;3.90;2.20;;;6.60;99.90;;;;;;5055415;28;20516;-69
2022/02/07 01:11:20;;;;;;;6.77;3.10;;;6.70;99.90;;;;;;5054584;28;20459;-70
2022/02/07 01:19:27;;;;;;;3.83;2.50;;;6.70;99.90;;;;;;5054205;28;20505;-70
2022/02/07 01:47:08;;;;;;;3.70;2.27;;;6.90;99.90;;;;;;5038515;28;20399;-70
2022/02/07 01:52:42;;;;;;;2.30;2.20;;;6.80;99.90;;;;;;5054308;28;20402;-72
2022/02/07 01:54:45;;;;;;;2.53;2.30;;;6.80;99.90;;;;;;5025973;28;20431;-70
2022/02/07 01:57:13;;;;;;;4.80;3.00;;;6.70;99.90;;;;;;5032252;28;20419;-70
2022/02/07 01:59:40;;;;;;;6.30;3.30;;;6.80;99.90;;;;;;5016635;28;20490;-70
2022/02/07 02:02:06;;;;;;;4.40;3.13;;;6.80;99.90;;;;;;5033639;28;20414;-70
2022/02/07 02:04:33;;;;;;;7.00;4.10;;;6.80;99.90;;;;;;5033981;28;20915;-70
2022/02/07 02:06:58;;;;;;;4.60;3.23;;;6.70;99.90;;;;;;5033251;28;20514;-71
2022/02/07 02:09:29;;;;;;;5.87;3.27;;;6.80;99.90;;;;;;5033971;28;20505;-70
2022/02/07 02:11:55;;;;;;;7.33;3.37;;;6.80;99.90;;;;;;5033219;28;20625;-75
2022/02/07 02:17:05;;;;;;;3.33;3.00;;;6.80;99.90;;;;;;5051847;28;20184;-70
2022/02/07 02:35:56;;;;;;;6.67;3.00;;;6.80;99.90;;;;;;5053183;28;20802;-70
2022/02/07 02:38:39;;;;;;;6.33;3.40;;;6.90;99.90;;;;;;5022777;28;20423;-70
2022/02/07 02:46:35;;;;;;;6.27;3.10;;;7.00;99.90;;;;;;5033410;28;20819;-70
2022/02/07 02:49:02;;;;;;;4.80;2.67;;;6.50;99.90;;;;;;5032669;28;20735;-70
2022/02/07 02:51:29;;;;;;;7.27;3.17;;;7.00;99.90;;;;;;5033253;28;20394;-70
2022/02/07 02:53:56;;;;;;;5.63;3.47;;;6.90;99.90;;;;;;5032767;28;20450;-74
2022/02/07 02:56:22;;;;;;;8.90;2.70;;;7.00;99.90;;;;;;5032470;28;20421;-70
2022/02/07 02:58:48;;;;;;;5.07;2.60;;;7.00;99.90;;;;;;5039290;28;20449;-70
2022/02/07 03:01:14;;;;;;;6.37;3.20;;;7.00;99.90;;;;;;5051888;28;20182;-70
2022/02/07 03:03:40;;;;;;;13.07;4.47;;;7.10;99.90;;;;;;5052919;28;20440;-70
2022/02/07 03:06:05;;;;;;;3.93;2.80;;;7.10;99.90;;;;;;5052081;28;20184;-70
2022/02/07 03:08:32;;;;;;;7.27;2.77;;;7.10;99.90;;;;;;5046596;28;20431;-70
2022/02/07 03:11:21;;;;;;;3.53;2.30;;;7.10;99.90;;;;;;5032204;28;20184;-75
2022/02/07 03:13:48;;;;;;;4.27;2.63;;;7.10;99.90;;;;;;5032749;28;20428;-70
2022/02/07 03:16:37;;;;;;;7.40;2.37;;;7.00;99.90;;;;;;5032038;28;20414;-70
2022/02/07 03:19:12;;;;;;;3.70;2.37;;;7.00;99.90;;;;;;5042151;28;20455;-70
2022/02/07 03:21:39;;;;;;;3.27;2.73;;;7.00;99.90;;;;;;5052182;28;20795;-70
2022/02/07 03:24:05;;;;;;;11.63;2.50;;;6.60;99.90;;;;;;5051571;28;20475;-70
2022/02/07 03:26:43;;;;;;;6.97;2.80;;;7.10;99.90;;;;;;5052463;28;20432;-70
2022/02/07 03:29:10;;;;;;;4.23;3.30;;;7.10;99.90;;;;;;5051479;28;20416;-70
2022/02/07 03:31:36;;;;;;;6.30;3.23;;;7.10;99.90;;;;;;5052450;28;20732;-70
2022/02/07 03:34:02;;;;;;;5.90;2.90;;;7.10;99.90;;;;;;5033787;28;20419;-72
2022/02/07 03:36:31;;;;;;;5.57;3.07;;;7.10;99.90;;;;;;5052382;28;20473;-70
2022/02/07 03:38:57;;;;;;;6.60;3.57;;;7.10;99.90;;;;;;5052277;28;20452;-70
2022/02/07 03:41:23;;;;;;;5.50;2.97;;;7.10;99.90;;;;;;5051464;28;20891;-70
2022/02/07 03:43:51;;;;;;;11.57;3.50;;;7.10;99.90;;;;;;5041569;28;20437;-69
2022/02/07 03:46:16;;;;;;;9.17;3.10;;;7.10;99.90;;;;;;5031519;28;20181;-70
2022/02/07 03:48:42;;;;;;;5.40;2.90;;;7.10;99.90;;;;;;5031975;28;20424;-70
2022/02/07 03:51:08;;;;;;;4.63;3.13;;;7.10;99.90;;;;;;5030718;28;20634;-70
2022/02/07 03:53:34;;;;;;;6.43;2.80;;;7.00;99.90;;;;;;5031371;28;20180;-69
2022/02/07 03:56:00;;;;;;;10.00;3.50;;;6.90;99.90;;;;;;5031437;28;20438;-74
2022/02/07 03:58:25;;;;;;;9.80;3.50;;;6.90;99.90;;;;;;5031661;28;20181;-70
2022/02/07 04:00:54;;;;;;;5.93;3.17;;;6.90;99.90;;;;;;5014587;28;20242;-70
2022/02/07 04:03:23;;;;;;;6.87;3.30;;;7.00;99.90;;;;;;5031333;28;20511;-70
2022/02/07 04:08:26;;;;;;;7.17;3.53;;;6.90;99.90;;;;;;5031110;28;20374;-69
2022/02/07 04:11:02;;;;;;;9.63;3.27;;;6.60;99.90;;;;;;5032108;28;20419;-69
2022/02/07 04:13:31;;;;;;;5.53;3.70;;;6.70;99.90;;;;;;5031838;28;20484;-69
2022/02/07 04:15:59;;;;;;;9.57;3.73;;;7.10;99.90;;;;;;5031906;28;20772;-69
2022/02/07 04:18:31;;;;;;;8.80;4.23;;;7.00;99.90;;;;;;5013389;28;21037;-69
2022/02/07 04:20:57;;;;;;;7.00;3.70;;;7.10;99.90;;;;;;5019192;28;20523;-69
2022/02/07 04:23:23;;;;;;;6.87;4.03;;;7.10;99.90;;;;;;5051416;28;21056;-69
2022/02/07 04:25:49;;;;;;;7.03;3.27;;;7.10;99.90;;;;;;5070310;28;20497;-69
2022/02/07 04:28:16;;;;;;;4.37;3.33;;;7.10;99.90;;;;;;5071085;28;20512;-69
2022/02/07 04:30:41;;;;;;;5.20;4.20;;;7.00;99.90;;;;;;5071498;28;20995;-69
2022/02/07 04:33:07;;;;;;;3.33;3.07;;;7.00;99.90;;;;;;5070809;28;20467;-70
2022/02/07 04:35:33;;;;;;;5.63;3.20;;;7.00;99.90;;;;;;5071896;28;20172;-69
2022/02/07 04:37:59;;;;;;;5.23;3.43;;;6.90;99.90;;;;;;5071838;28;20206;-69
2022/02/07 04:40:25;;;;;;;5.40;3.30;;;6.90;99.90;;;;;;5070913;28;20544;-69
2022/02/07 04:42:51;;;;;;;5.77;3.27;;;6.90;99.90;;;;;;5071771;28;20177;-70
2022/02/07 04:55:47;;;;;;;6.63;3.13;;;6.90;99.90;;;;;;5051814;28;20460;-70
2022/02/07 05:01:24;;;;;;;4.57;3.67;;;7.00;99.90;;;;;;5051681;28;20434;-70
2022/02/07 05:03:56;;;;;;;5.50;3.33;;;6.90;99.90;;;;;;5053072;28;20403;-70
2022/02/07 05:14:36;;;;;;;5.73;3.30;;;6.90;99.90;;;;;;5075133;28;20442;-70
2022/02/07 05:17:06;;;;;;;4.83;3.30;;;6.90;99.90;;;;;;5074584;28;20425;-70
2022/02/07 05:19:32;;;;;;;6.23;3.50;;;6.90;99.90;;;;;;5074719;28;20464;-70
2022/02/07 05:21:57;;;;;;;7.50;3.53;;;6.70;99.90;;;;;;5062184;28;20495;-70
2022/02/07 05:24:23;;;;;;;6.70;3.60;;;6.90;99.90;;;;;;5036280;28;20207;-70
2022/02/07 05:26:49;;;;;;;11.07;3.37;;;6.90;99.90;;;;;;5036935;28;20175;-70
2022/02/07 05:29:15;;;;;;;3.50;3.10;;;7.00;99.90;;;;;;5035210;28;20202;-71
2022/02/07 05:31:40;;;;;;;11.20;3.37;;;6.90;99.90;;;;;;5016988;28;20625;-70
2022/02/07 05:34:07;;;;;;;9.27;4.40;;;7.00;99.90;;;;;;5034342;28;20190;-72
2022/02/07 05:36:40;;;;;;;13.63;4.20;;;7.00;99.90;;;;;;5016832;28;20199;-70
2022/02/07 05:39:06;;;;;;;9.63;4.50;;;7.10;99.90;;;;;;5034324;28;20480;-73
2022/02/07 05:41:32;;;;;;;7.33;3.90;;;7.20;99.90;;;;;;5033903;28;20450;-70
2022/02/07 05:43:57;;;;;;;9.27;5.57;;;7.20;99.90;;;;;;5034306;28;20923;-70
2022/02/07 05:46:23;;;;;;;5.33;4.77;;;7.10;99.90;;;;;;5033444;28;20850;-70
2022/02/07 05:48:49;;;;;;;5.80;3.60;;;7.10;99.90;;;;;;5034603;28;20188;-70
2022/02/07 05:51:15;;;;;;;9.57;5.53;;;7.10;99.90;;;;;;5052075;28;20439;-70
2022/02/07 05:53:41;;;;;;;7.20;3.90;;;7.10;99.90;;;;;;5036277;28;20932;-70
2022/02/07 05:56:07;;;;;;;6.27;4.70;;;7.20;99.90;;;;;;5053935;28;20501;-73
2022/02/07 05:58:33;;;;;;;8.40;2.85;;;7.20;99.90;;;;;;5053677;28;20917;-70
2022/02/07 06:00:58;;;;;;;7.90;4.37;;;7.20;99.90;;;;;;5053860;28;20238;-70
2022/02/07 06:03:24;;;;;;;11.93;3.80;;;7.20;99.90;;;;;;5053304;28;20176;-70
2022/02/07 06:05:50;;;;;;;8.00;5.10;;;7.10;99.90;;;;;;5036258;28;20643;-70
2022/02/07 06:08:19;;;;;;;8.00;3.40;;;7.10;99.90;;;;;;5035569;28;20176;-70
2022/02/07 06:10:46;;;;;;;6.90;3.77;;;7.00;99.90;;;;;;5049173;28;20267;-70
2022/02/07 06:13:16;;;;;;;14.47;3.60;;;7.10;99.90;;;;;;5033238;28;20446;-71
2022/02/07 06:15:42;;;;;;;6.63;5.93;;;7.10;99.90;;;;;;5033082;28;20438;-70
2022/02/07 06:18:08;;;;;;;6.57;3.47;;;7.10;99.90;;;;;;5034033;28;20427;-73
2022/02/07 06:20:33;;;;;;;8.40;5.13;;;7.10;99.90;;;;;;5033078;28;20295;-69
2022/02/07 06:22:59;;;;;;;13.53;3.93;;;7.10;99.90;;;;;;5016106;28;20230;-70
2022/02/07 06:25:25;;;;;;;7.73;3.83;;;7.10;99.90;;;;;;5032924;28;20188;-70
2022/02/07 06:27:52;;;;;;;10.63;3.70;;;7.20;99.90;;;;;;5015837;28;20173;-70
2022/02/07 06:30:18;;;;;;;18.40;5.03;;;7.20;99.90;;;;;;5034600;28;20544;-70
2022/02/07 06:32:43;;;;;;;9.17;3.40;;;7.30;99.90;;;;;;5026524;28;20423;-70
2022/02/07 06:35:09;;;;;;;10.30;4.33;;;7.30;99.90;;;;;;5033157;28;20419;-73
2022/02/07 06:37:36;;;;;;;9.30;3.80;;;7.20;99.90;;;;;;5032756;28;20816;-70
2022/02/07 06:40:03;;;;;;;4.13;3.47;;;7.40;99.90;;;;;;5033105;28;20209;-70
2022/02/07 06:42:28;;;;;;;8.17;5.00;;;7.40;99.90;;;;;;5033604;28;20705;-71
2022/02/07 06:44:54;;;;;;;7.60;4.73;;;7.40;99.90;;;;;;5050842;28;20775;-70
2022/02/07 06:47:20;;;;;;;5.90;2.83;;;6.90;99.90;;;;;;5052104;28;20171;-70
2022/02/07 06:49:45;;;;;;;9.73;4.10;;;7.30;99.90;;;;;;5053474;28;20215;-70
2022/02/07 06:52:12;;;;;;;7.73;4.00;;;7.30;99.90;;;;;;5039536;28;20182;-74
2022/02/07 06:54:38;;;;;;;11.80;3.70;;;6.90;99.90;;;;;;5049013;28;20215;-70
2022/02/07 06:57:04;;;;;;;9.30;4.17;;;7.50;99.90;;;;;;5031910;28;20436;-70
2022/02/07 06:59:34;;;;;;;10.03;4.40;;;7.30;99.90;;;;;;5035382;28;20755;-71
2022/02/07 07:01:59;;;;;;;10.07;3.20;;;7.30;99.90;;;;;;5033236;28;20403;-70
2022/02/07 07:04:28;;;;;;;10.27;3.93;;;7.20;99.90;;;;;;5026240;28;20421;-70
2022/02/07 07:06:53;;;;;;;11.63;5.20;;;7.40;99.90;;;;;;5053234;28;20175;-70
2022/02/07 07:09:19;;;;;;;11.67;5.17;;;7.50;99.90;;;;;;5047412;28;20422;-71
2022/02/07 07:11:45;;;;;;;8.90;3.60;;;7.40;99.90;;;;;;5052819;28;20222;-69
2022/02/07 07:14:40;;;;;;;7.73;5.93;;;7.50;99.90;;;;;;5052406;28;20184;-74
2022/02/07 07:16:58;;;;;;;7.67;3.50;;;7.50;99.90;;;;;;5032613;28;20292;-70
2022/02/07 07:19:26;;;;;;;9.70;6.30;;;7.50;99.90;;;;;;5037014;28;20442;-69
2022/02/07 07:21:53;;;;;;;9.10;3.27;;;7.50;99.90;;;;;;5043790;28;20463;-71
2022/02/07 07:24:19;;;;;;;11.47;5.90;;;7.50;99.90;;;;;;5033870;28;20443;-69
2022/02/07 07:26:45;;;;;;;9.00;5.33;;;7.50;99.90;;;;;;5046048;28;20944;-69
2022/02/07 07:29:20;;;;;;;8.70;3.30;;;7.20;99.90;;;;;;5032636;28;20486;-69
2022/02/07 07:31:52;;;;;;;13.90;4.90;;;7.50;99.90;;;;;;5039325;28;20436;-75
2022/02/07 07:34:19;;;;;;;9.47;4.40;;;7.50;99.90;;;;;;5036172;28;20750;-69
2022/02/07 07:36:45;;;;;;;11.13;4.83;;;7.50;99.90;;;;;;5025782;28;20877;-69
2022/02/07 07:39:13;;;;;;;8.00;4.70;;;7.50;99.90;;;;;;5050487;28;20785;-74
2022/02/07 07:41:41;;;;;;;11.50;4.60;;;7.50;99.90;;;;;;5052633;28;20929;-69
2022/02/07 07:44:07;;;;;;;10.23;5.50;;;7.50;99.90;;;;;;5035618;28;20435;-69
2022/02/07 07:46:33;;;;;;;8.57;3.97;;;7.20;99.90;;;;;;5032316;28;20428;-69
2022/02/07 07:49:09;;;;;;;9.47;4.57;;;7.40;99.90;;;;;;5041630;28;20458;-69
2022/02/07 08:02:11;;;;;;;5.80;3.50;;;7.40;99.90;;;;;;5032727;28;20482;-69
2022/02/07 08:04:39;;;;;;;8.67;3.53;;;7.40;99.90;;;;;;5032918;28;20396;-69
2022/02/07 08:12:21;;;;;;;13.77;4.20;;;7.40;99.90;;;;;;5051811;28;20431;-72
2022/02/07 08:14:47;;;;;;;11.87;4.40;;;7.40;99.90;;;;;;5034280;28;20891;-70
2022/02/07 08:17:13;;;;;;;6.70;3.70;;;7.30;99.90;;;;;;5052294;28;20410;-70
2022/02/07 08:19:43;;;;;;;15.00;4.17;;;7.40;99.90;;;;;;5049271;28;20221;-70
2022/02/07 08:22:09;;;;;;;8.63;3.70;;;7.40;99.90;;;;;;5038904;28;20546;-70
2022/02/07 08:24:36;;;;;;;6.23;4.23;;;7.40;99.90;;;;;;5049075;28;20703;-70
2022/02/07 08:27:04;;;;;;;13.60;4.57;;;7.50;99.90;;;;;;5038992;28;20416;-71
2022/02/07 08:29:29;;;;;;;9.80;3.60;;;7.60;99.90;;;;;;5045010;28;20435;-71
2022/02/07 08:31:56;;;;;;;8.20;3.93;;;7.60;99.90;;;;;;5047111;28;20475;-71
2022/02/07 08:34:22;;;;;;;8.13;4.43;;;7.60;99.90;;;;;;5050818;28;20919;-70
2022/02/07 08:36:47;;;;;;;9.63;3.57;;;7.60;99.90;;;;;;5051894;28;20182;-70
2022/02/07 08:39:13;;;;;;;12.17;4.13;;;7.60;99.90;;;;;;5052504;28;20209;-71
2022/02/07 08:41:39;;;;;;;7.00;3.23;;;7.60;99.90;;;;;;5055175;28;20254;-70
2022/02/07 08:44:05;;;;;;;8.00;3.43;;;7.60;99.90;;;;;;5056085;28;20617;-70
2022/02/07 08:46:31;;;;;;;5.97;3.63;;;7.70;99.90;;;;;;5055284;28;20418;-69
2022/02/07 08:48:58;;;;;;;10.97;4.13;;;7.70;99.90;;;;;;5046546;28;20486;-69
2022/02/07 08:51:24;;;;;;;8.53;4.23;;;7.70;99.90;;;;;;5035386;28;20420;-69
2022/02/07 08:53:51;;;;;;;9.40;4.50;;;7.60;99.90;;;;;;5035900;28;20603;-69
2022/02/07 08:56:20;;;;;;;10.60;4.97;;;7.70;99.90;;;;;;5022378;28;20423;-72
2022/02/07 08:58:48;;;;;;;7.87;5.23;;;7.70;99.90;;;;;;5054942;28;20784;-69
2022/02/07 09:11:11;;;;;;;4.80;4.10;;;7.70;99.90;;;;;;5035411;28;20417;-69
2022/02/07 09:13:41;;;;;;;6.47;4.23;;;7.40;99.90;;;;;;5047246;28;21120;-69
2022/02/07 09:18:38;;;;;;;9.23;4.20;;;7.70;99.90;;;;;;5037925;28;20926;-69
2022/02/07 09:21:08;;;;;;;8.43;3.57;;;7.70;99.90;;;;;;5036486;28;20460;-70
2022/02/07 09:23:39;;;;;;;6.77;6.17;;;7.80;99.90;;;;;;5049404;28;20459;-70
2022/02/07 09:26:05;;;;;;;8.27;7.47;;;7.80;99.90;;;;;;5037199;28;20904;-70
2022/02/07 09:28:32;;;;;;;11.03;7.07;;;8.30;99.90;;;;;;5054235;28;20923;-71
2022/02/07 09:30:58;;;;;;;10.60;5.87;;;8.90;99.90;;;;;;5018276;28;20467;-71
2022/02/07 09:33:24;;;;;;;7.47;4.70;;;9.50;99.90;;;;;;5050350;28;20452;-71
2022/02/07 09:35:51;;;;;;;9.23;4.30;;;9.90;99.90;;;;;;5042229;28;20457;-70
2022/02/07 09:38:21;;;;;;;12.00;4.30;;;10.30;99.90;;;;;;5027744;28;20180;-69
2022/02/07 09:40:51;;;;;;;7.43;4.57;;;10.60;99.90;;;;;;5035675;28;20527;-70
2022/02/07 09:43:18;;;;;;;7.90;4.70;;;10.80;99.90;;;;;;5054259;28;20421;-70
2022/02/07 09:45:47;;;;;;;12.60;5.93;;;10.90;99.90;;;;;;5044678;28;20426;-70
2022/02/07 09:48:15;;;;;;;17.40;6.43;;;11.70;99.90;;;;;;5033384;28;20799;-70
2022/02/07 09:50:41;;;;;;;13.20;6.43;;;12.20;99.90;;;;;;5033538;28;20418;-73
2022/02/07 09:53:06;;;;;;;7.33;4.87;;;13.00;99.90;;;;;;5055192;28;20461;-71
2022/02/07 09:55:33;;;;;;;11.63;4.17;;;13.10;96.80;;;;;;5035312;28;20190;-72
2022/02/07 09:58:00;;;;;;;10.63;4.53;;;12.70;94.40;;;;;;5017087;28;20637;-71
2022/02/07 10:00:32;;;;;;;11.97;6.07;;;12.30;94.70;;;;;;5034407;28;20453;-69
2022/02/07 10:03:15;;;;;;;7.00;3.77;;;11.90;94.70;;;;;;5035088;28;20539;-69
2022/02/07 10:05:50;;;;;;;9.97;4.73;;;11.50;95.60;;;;;;5052422;28;20421;-69
2022/02/07 10:11:08;;;;;;;9.70;4.60;;;10.80;97.10;;;;;;5047611;28;20430;-69
2022/02/07 10:19:36;;;;;;;7.97;4.77;;;10.20;98.50;;;;;;5029885;28;20486;-69
2022/02/07 10:44:45;;;;;;;11.47;6.80;;;10.20;99.10;;;;;;5053735;28;20403;-69
2022/02/07 10:47:20;;;;;;;13.17;5.57;;;10.20;98.70;;;;;;5053635;28;20504;-69
2022/02/07 10:50:08;;;;;;;10.00;5.03;;;10.30;99.40;;;;;;5052943;28;20431;-69
2022/02/07 10:52:48;;;;;;;14.83;4.70;;;10.20;98.90;;;;;;5035020;28;20406;-69
2022/02/07 10:55:26;;;;;;;15.63;6.53;;;10.00;98.90;;;;;;5053244;28;20413;-69
2022/02/07 10:57:55;;;;;;;9.87;5.13;;;10.00;98.50;;;;;;5053257;28;20913;-69
2022/02/07 11:00:28;;;;;;;13.13;7.50;;;10.00;99.20;;;;;;5053315;28;20824;-69
2022/02/07 11:03:05;;;;;;;11.77;5.47;;;10.10;99.90;;;;;;5053323;28;20449;-69
2022/02/07 11:05:39;;;;;;;10.97;5.47;;;10.00;99.40;;;;;;5052760;28;20430;-69
2022/02/07 11:08:32;;;;;;;11.07;4.70;;;10.00;98.60;;;;;;5053429;28;20706;-69
2022/02/07 11:11:14;;;;;;;11.70;6.00;;;10.00;99.60;;;;;;5053156;28;20500;-69
2022/02/07 11:21:39;;;;;;;9.97;3.97;;;10.20;98.10;;;;;;5052192;28;20461;-69
2022/02/07 11:24:26;;;;;;;12.97;5.00;;;10.20;97.80;;;;;;5052560;28;20410;-69
2022/02/07 11:26:52;;;;;;;10.67;4.50;;;10.20;97.80;;;;;;5052974;28;20407;-69
2022/02/07 11:29:36;;;;;;;10.40;5.73;;;10.10;98.00;;;;;;5052848;28;20458;-69
2022/02/07 11:32:02;;;;;;;9.93;4.30;;;10.10;97.90;;;;;;5052951;28;20401;-69
2022/02/07 11:34:42;;;;;;;14.80;5.00;;;10.00;97.90;;;;;;5051820;28;20931;-70
2022/02/07 11:37:21;;;;;;;11.47;3.87;;;10.00;98.60;;;;;;5053177;28;20447;-69
2022/02/07 11:39:50;;;;;;;8.73;4.43;;;10.00;99.20;;;;;;5051912;28;20460;-69
2022/02/07 11:42:16;;;;;;;8.77;3.73;;;10.20;99.70;;;;;;5034472;28;20967;-69
2022/02/07 11:45:02;;;;;;;8.87;4.90;;;10.20;98.60;;;;;;5052009;28;20436;-69
2022/02/07 11:47:30;;;;;;;8.13;4.20;;;10.30;99.00;;;;;;5051667;28;20479;-74
2022/02/07 11:50:05;;;;;;;9.50;4.63;;;10.20;97.90;;;;;;5034295;28;20420;-69
2022/02/07 11:52:45;;;;;;;11.23;4.83;;;10.10;97.40;;;;;;5051788;28;20406;-69
2022/02/07 11:55:25;;;;;;;9.90;4.50;;;10.10;97.30;;;;;;5052663;28;20437;-69
2022/02/07 11:58:01;;;;;;;11.43;4.40;;;10.00;97.50;;;;;;5052181;28;20419;-69
2022/02/07 12:00:35;;;;;;;10.87;4.90;;;9.90;98.80;;;;;;5051910;28;20451;-76
2022/02/07 12:03:04;;;;;;;5.20;4.30;;;9.90;98.80;;;;;;5052149;28;20934;-69
2022/02/07 12:05:31;;;;;;;10.27;5.83;;;9.90;98.60;;;;;;5051772;28;20799;-69
2022/02/07 12:08:13;;;;;;;6.80;3.47;;;9.90;98.00;;;;;;5052320;28;20425;-69
2022/02/07 12:10:47;;;;;;;14.43;4.17;;;9.90;98.60;;;;;;5051162;28;20401;-69
2022/02/07 12:13:38;;;;;;;12.40;3.50;;;9.90;97.80;;;;;;5052663;28;20396;-69
2022/02/07 12:16:20;;;;;;;7.63;3.90;;;9.80;97.90;;;;;;5056325;28;20454;-69
2022/02/07 12:19:07;;;;;;;10.97;4.20;;;9.80;97.70;;;;;;5055661;28;20425;-69
2022/02/07 12:21:33;;;;;;;8.30;3.60;;;9.80;97.30;;;;;;5055797;28;20514;-69
2022/02/07 12:24:04;;;;;;;10.73;3.97;;;9.90;97.80;;;;;;5056341;28;20425;-69
2022/02/07 12:26:36;;;;;;;13.37;4.33;;;10.00;97.00;;;;;;5055638;28;20187;-70
2022/02/07 12:29:09;;;;;;;6.90;4.20;;;10.00;96.60;;;;;;5056137;28;20474;-69
2022/02/07 12:31:40;;;;;;;11.50;4.17;;;10.10;97.10;;;;;;5055650;28;20397;-69
2022/02/07 12:34:12;;;;;;;5.57;3.47;;;10.40;96.60;;;;;;5056176;28;20425;-69
2022/02/07 12:36:39;;;;;;;9.33;4.40;;;10.50;96.00;;;;;;5037775;28;20753;-69
2022/02/07 12:39:10;;;;;;;9.60;4.10;;;10.60;95.60;;;;;;5056332;28;20458;-69
2022/02/07 12:41:36;;;;;;;4.27;3.33;;;10.70;94.40;;;;;;5055161;28;20425;-69
2022/02/07 12:44:06;;;;;;;10.33;3.27;;;10.80;94.20;;;;;;5056045;28;20423;-69
2022/02/07 12:46:33;;;;;;;7.47;3.57;;;10.90;93.70;;;;;;5055555;28;20415;-74
2022/02/07 12:49:02;;;;;;;13.77;3.53;;;10.90;94.20;;;;;;5055161;28;20445;-69
2022/02/07 12:51:34;;;;;;;7.13;3.30;;;11.00;92.80;;;;;;5055606;28;20545;-69
2022/02/07 12:54:00;;;;;;;10.37;3.67;;;11.00;92.70;;;;;;5056173;28;20861;-69
2022/02/07 12:56:28;;;;;;;7.23;3.73;;;11.10;93.50;;;;;;5056054;28;20466;-69
2022/02/07 12:58:54;;;;;;;7.30;4.53;;;11.20;93.00;;;;;;5055095;28;20167;-69
2022/02/07 13:01:31;;;;;;;9.47;2.60;;;11.20;92.70;;;;;;5055664;28;20421;-70
2022/02/07 13:04:03;;;;;;;13.67;3.67;;;11.20;92.00;;;;;;5056026;28;20169;-69
2022/02/07 13:06:36;;;;;;;7.33;4.03;;;11.10;91.90;;;;;;5055652;28;20420;-69
2022/02/07 13:09:19;;;;;;;10.60;3.30;;;11.00;93.40;;;;;;5055629;28;20400;-69
2022/02/07 13:14:45;;;;;;;11.63;4.70;;;10.60;95.20;;;;;;5035111;28;20469;-69
2022/02/07 13:17:11;;;;;;;9.50;3.77;;;10.50;95.30;;;;;;5037483;28;20438;-69
2022/02/07 13:19:41;;;;;;;6.10;3.47;;;10.40;94.80;;;;;;5054983;28;20884;-69
2022/02/07 13:22:08;;;;;;;7.80;4.27;;;10.40;96.10;;;;;;5055265;28;20461;-69
2022/02/07 13:24:35;;;;;;;6.10;3.10;;;10.40;95.80;;;;;;5054248;28;20416;-70
2022/02/07 13:27:04;;;;;;;6.27;4.00;;;10.50;96.10;;;;;;5055055;28;20415;-69
2022/02/07 13:29:53;;;;;;;6.67;4.13;;;10.60;95.50;;;;;;5048235;28;20527;-69
2022/02/07 13:32:25;;;;;;;6.97;4.40;;;10.70;94.70;;;;;;5038328;28;20423;-69
2022/02/07 13:35:03;;;;;;;9.40;4.00;;;10.70;93.90;;;;;;5042188;28;20409;-69
2022/02/07 13:37:32;;;;;;;10.00;4.23;;;10.70;95.20;;;;;;5045758;28;20424;-69
2022/02/07 13:40:04;;;;;;;7.23;4.10;;;10.70;93.80;;;;;;5035161;28;20470;-69
2022/02/07 13:42:34;;;;;;;6.80;5.33;;;10.60;93.30;;;;;;5039863;28;20918;-70
2022/02/07 13:45:01;;;;;;;10.30;4.80;;;10.70;93.90;;;;;;5035534;28;20482;-69
2022/02/07 13:47:27;;;;;;;7.27;3.70;;;10.60;94.40;;;;;;5042139;28;20449;-70
2022/02/07 13:49:58;;;;;;;5.70;5.10;;;10.60;94.10;;;;;;5045909;28;20809;-70
2022/02/07 13:52:45;;;;;;;4.90;3.80;;;10.40;94.30;;;;;;5044754;28;20916;-70
2022/02/07 13:55:29;;;;;;;5.90;3.57;;;10.30;95.50;;;;;;5055008;28;20422;-70
2022/02/07 13:58:01;;;;;;;8.43;4.10;;;10.10;97.80;;;;;;5032171;28;20437;-70
2022/02/07 14:00:35;;;;;;;6.63;5.20;;;9.90;99.60;;;;;;5034609;28;20466;-70
2022/02/07 14:03:26;;;;;;;5.63;4.20;;;9.70;99.90;;;;;;5033697;28;20478;-70
2022/02/07 14:06:05;;;;;;;7.50;4.50;;;9.70;99.90;;;;;;5033606;28;20430;-70
2022/02/07 14:08:42;;;;;;;8.93;6.67;;;9.50;99.90;;;;;;5016980;28;20432;-70
2022/02/07 14:11:10;;;;;;;8.07;3.93;;;9.50;99.90;;;;;;5034572;28;20409;-70
2022/02/07 14:13:37;;;;;;;7.70;4.40;;;9.50;99.90;;;;;;5033537;28;20863;-70
2022/02/07 14:16:05;;;;;;;5.63;4.83;;;9.50;99.90;;;;;;5034180;28;20467;-70
2022/02/07 14:18:32;;;;;;;8.17;5.77;;;9.50;99.90;;;;;;5033931;28;20925;-70
2022/02/07 14:21:08;;;;;;;7.07;4.17;;;9.60;99.90;;;;;;5034897;28;20480;-71
2022/02/07 14:23:34;;;;;;;4.33;3.37;;;9.60;99.90;;;;;;5016099;28;20912;-70
2022/02/07 14:26:00;;;;;;;11.60;5.17;;;9.60;99.90;;;;;;5035902;28;20441;-70
2022/02/07 14:28:27;;;;;;;8.00;3.63;;;9.60;99.90;;;;;;5035504;28;20421;-71
2022/02/07 14:30:54;;;;;;;8.83;4.37;;;9.70;99.90;;;;;;5032129;28;20437;-70
2022/02/07 14:33:20;;;;;;;4.67;4.23;;;9.80;99.90;;;;;;5015507;28;20585;-70
2022/02/07 14:35:45;;;;;;;7.77;4.93;;;9.90;99.90;;;;;;5021653;28;20450;-70
2022/02/07 14:38:12;;;;;;;12.77;4.57;;;9.90;99.90;;;;;;5042099;28;20450;-70
2022/02/07 14:40:43;;;;;;;6.67;4.80;;;9.90;99.80;;;;;;5033208;28;20594;-71
2022/02/07 14:43:14;;;;;;;7.33;4.23;;;10.00;98.70;;;;;;5049449;28;20531;-70
2022/02/07 14:45:53;;;;;;;36.27;25.10;;;10.00;98.40;;;;;;5052799;28;20389;-70
2022/02/07 14:48:20;;;;;;;49.47;30.13;;;10.00;97.90;;;;;;5041716;28;20476;-70
2022/02/07 14:50:46;;;;;;;94.90;54.80;;;10.10;97.70;;;;;;5033094;28;20532;-70
2022/02/07 14:53:13;;;;;;;7.10;4.00;;;10.00;97.60;;;;;;5036302;28;20510;-71
2022/02/07 14:55:40;;;;;;;5.30;5.00;;;9.90;97.60;;;;;;5052438;28;20926;-76
2022/02/07 14:58:07;;;;;;;5.60;4.63;;;9.90;97.20;;;;;;5037834;28;20423;-69
2022/02/07 15:00:34;;;;;;;6.50;2.90;;;10.00;96.60;;;;;;5032801;28;20948;-70
2022/02/07 15:03:00;;;;;;;4.90;3.27;;;10.00;96.20;;;;;;5032277;28;20507;-70
2022/02/07 15:05:29;;;;;;;10.30;3.37;;;10.00;96.20;;;;;;5033048;28;20544;-70
2022/02/07 15:07:55;;;;;;;8.37;3.47;;;10.00;95.60;;;;;;5033143;28;20432;-69
2022/02/07 15:10:21;;;;;;;6.20;3.27;;;10.00;95.50;;;;;;5035856;28;20427;-70
2022/02/07 15:12:47;;;;;;;5.83;4.70;;;10.10;95.20;;;;;;5032491;28;20457;-70
2022/02/07 15:15:14;;;;;;;7.13;3.73;;;9.90;95.60;;;;;;5015198;28;20425;-70
2022/02/07 15:17:40;;;;;;;8.33;5.20;;;9.90;95.50;;;;;;5046779;28;20517;-76
2022/02/07 15:20:09;;;;;;;6.33;3.80;;;9.90;96.10;;;;;;5051807;28;20477;-69
2022/02/07 15:22:36;;;;;;;4.50;2.90;;;9.90;96.10;;;;;;5048277;28;20462;-70
2022/02/07 15:25:02;;;;;;;8.97;3.37;;;9.90;95.70;;;;;;5029439;28;20485;-70
2022/02/07 15:27:29;;;;;;;5.07;4.43;;;9.90;96.30;;;;;;5031791;28;20417;-70
2022/02/07 15:29:59;;;;;;;7.03;4.40;;;9.90;95.70;;;;;;5032175;28;20415;-70
2022/02/07 15:32:31;;;;;;;4.23;2.93;;;9.80;95.30;;;;;;5027457;28;20415;-70
2022/02/07 15:35:02;;;;;;;8.57;3.47;;;9.80;95.60;;;;;;5030985;28;20413;-70